sensor_id;sensor_type;location;lat;lon;timestamp;temperature;humidity
27314;DHT22;14800;48.174;9.798;2023-04-26T00:02:21;8.70;80.60
27314;DHT22;14800;48.174;9.798;2023-04-26T00:04:51;8.70;80.50
27314;DHT22;14800;48.174;9.798;2023-04-26T00:07:29;8.70;81.00
27314;DHT22;14800;48.174;9.798;2023-04-26T00:09:55;8.70;80.80
27314;DHT22;14800;48.174;9.798;2023-04-26T00:12:21;8.70;80.80
27314;DHT22;14800;48.174;9.798;2023-04-26T00:14:46;8.70;80.60
27314;DHT22;14800;48.174;9.798;2023-04-26T00:17:12;8.80;80.30
27314;DHT22;14800;48.174;9.798;2023-04-26T00:19:38;8.80;80.10
27314;DHT22;14800;48.174;9.798;2023-04-26T00:22:04;8.80;79.90
27314;DHT22;14800;48.174;9.798;2023-04-26T00:24:30;8.80;79.80
27314;DHT22;14800;48.174;9.798;2023-04-26T00:26:57;8.80;79.90
27314;DHT22;14800;48.174;9.798;2023-04-26T00:29:22;8.80;80.10
27314;DHT22;14800;48.174;9.798;2023-04-26T00:31:48;8.80;80.10
27314;DHT22;14800;48.174;9.798;2023-04-26T00:34:14;8.80;79.90
27314;DHT22;14800;48.174;9.798;2023-04-26T00:36:40;8.80;79.60
27314;DHT22;14800;48.174;9.798;2023-04-26T00:39:06;8.80;79.40
27314;DHT22;14800;48.174;9.798;2023-04-26T00:41:32;8.70;79.00
27314;DHT22;14800;48.174;9.798;2023-04-26T00:43:58;8.70;79.00
27314;DHT22;14800;48.174;9.798;2023-04-26T00:46:24;8.70;79.50
27314;DHT22;14800;48.174;9.798;2023-04-26T00:48:50;8.70;79.70
27314;DHT22;14800;48.174;9.798;2023-04-26T00:51:16;8.70;79.80
27314;DHT22;14800;48.174;9.798;2023-04-26T00:53:41;8.70;80.20
27314;DHT22;14800;48.174;9.798;2023-04-26T00:56:11;8.70;80.40
27314;DHT22;14800;48.174;9.798;2023-04-26T00:58:37;8.70;80.70
27314;DHT22;14800;48.174;9.798;2023-04-26T01:01:02;8.70;80.50
27314;DHT22;14800;48.174;9.798;2023-04-26T01:03:28;8.70;80.40
27314;DHT22;14800;48.174;9.798;2023-04-26T01:05:54;8.70;80.50
27314;DHT22;14800;48.174;9.798;2023-04-26T01:08:20;8.70;80.50
27314;DHT22;14800;48.174;9.798;2023-04-26T01:10:48;8.70;80.50
27314;DHT22;14800;48.174;9.798;2023-04-26T01:13:14;8.70;80.60
27314;DHT22;14800;48.174;9.798;2023-04-26T01:15:46;8.70;80.70
27314;DHT22;14800;48.174;9.798;2023-04-26T01:18:12;8.70;80.80
27314;DHT22;14800;48.174;9.798;2023-04-26T01:20:41;8.70;80.60
27314;DHT22;14800;48.174;9.798;2023-04-26T01:23:08;8.70;80.70
27314;DHT22;14800;48.174;9.798;2023-04-26T01:25:34;8.70;80.80
27314;DHT22;14800;48.174;9.798;2023-04-26T01:27:59;8.70;80.90
27314;DHT22;14800;48.174;9.798;2023-04-26T01:30:25;8.80;81.10
27314;DHT22;14800;48.174;9.798;2023-04-26T01:32:51;8.80;81.20
27314;DHT22;14800;48.174;9.798;2023-04-26T01:35:16;8.80;81.00
27314;DHT22;14800;48.174;9.798;2023-04-26T01:37:42;8.70;80.80
27314;DHT22;14800;48.174;9.798;2023-04-26T01:40:08;8.70;80.60
27314;DHT22;14800;48.174;9.798;2023-04-26T01:42:34;8.70;80.90
27314;DHT22;14800;48.174;9.798;2023-04-26T01:45:00;8.70;81.20
27314;DHT22;14800;48.174;9.798;2023-04-26T01:47:26;8.70;81.30
27314;DHT22;14800;48.174;9.798;2023-04-26T01:49:52;8.70;82.30
27314;DHT22;14800;48.174;9.798;2023-04-26T01:52:17;8.70;81.50
27314;DHT22;14800;48.174;9.798;2023-04-26T01:54:43;8.70;81.50
27314;DHT22;14800;48.174;9.798;2023-04-26T01:57:08;8.70;81.40
27314;DHT22;14800;48.174;9.798;2023-04-26T01:59:34;8.70;81.50
27314;DHT22;14800;48.174;9.798;2023-04-26T02:02:00;8.70;81.40
27314;DHT22;14800;48.174;9.798;2023-04-26T02:04:26;8.70;81.50
27314;DHT22;14800;48.174;9.798;2023-04-26T02:06:51;8.70;81.70
27314;DHT22;14800;48.174;9.798;2023-04-26T02:09:17;8.70;81.30
27314;DHT22;14800;48.174;9.798;2023-04-26T02:11:43;8.80;81.20
27314;DHT22;14800;48.174;9.798;2023-04-26T02:14:09;8.80;81.00
27314;DHT22;14800;48.174;9.798;2023-04-26T02:16:35;8.80;81.00
27314;DHT22;14800;48.174;9.798;2023-04-26T02:19:00;8.70;80.80
27314;DHT22;14800;48.174;9.798;2023-04-26T02:21:28;8.70;80.70
27314;DHT22;14800;48.174;9.798;2023-04-26T02:23:55;8.80;80.80
27314;DHT22;14800;48.174;9.798;2023-04-26T02:26:20;8.70;80.90
27314;DHT22;14800;48.174;9.798;2023-04-26T02:28:46;8.70;81.00
27314;DHT22;14800;48.174;9.798;2023-04-26T02:31:11;8.70;81.10
27314;DHT22;14800;48.174;9.798;2023-04-26T02:33:37;8.70;81.10
27314;DHT22;14800;48.174;9.798;2023-04-26T02:36:04;8.70;81.20
27314;DHT22;14800;48.174;9.798;2023-04-26T02:38:34;8.70;81.20
27314;DHT22;14800;48.174;9.798;2023-04-26T02:41:01;8.70;81.50
27314;DHT22;14800;48.174;9.798;2023-04-26T02:43:27;8.70;81.60
27314;DHT22;14800;48.174;9.798;2023-04-26T02:45:53;8.70;81.60
27314;DHT22;14800;48.174;9.798;2023-04-26T02:48:18;8.70;81.50
27314;DHT22;14800;48.174;9.798;2023-04-26T02:50:45;8.70;81.50
27314;DHT22;14800;48.174;9.798;2023-04-26T02:53:11;8.70;81.50
27314;DHT22;14800;48.174;9.798;2023-04-26T02:55:38;8.70;81.70
27314;DHT22;14800;48.174;9.798;2023-04-26T02:58:04;8.70;81.70
27314;DHT22;14800;48.174;9.798;2023-04-26T03:00:30;8.70;81.70
27314;DHT22;14800;48.174;9.798;2023-04-26T03:02:58;8.70;81.70
27314;DHT22;14800;48.174;9.798;2023-04-26T03:05:23;8.70;81.70
27314;DHT22;14800;48.174;9.798;2023-04-26T03:07:51;8.70;81.70
27314;DHT22;14800;48.174;9.798;2023-04-26T03:10:16;8.70;81.50
27314;DHT22;14800;48.174;9.798;2023-04-26T03:12:42;8.70;81.50
27314;DHT22;14800;48.174;9.798;2023-04-26T03:15:08;8.60;81.50
27314;DHT22;14800;48.174;9.798;2023-04-26T03:17:34;8.60;81.60
27314;DHT22;14800;48.174;9.798;2023-04-26T03:19:59;8.60;81.80
27314;DHT22;14800;48.174;9.798;2023-04-26T03:22:25;8.60;81.90
27314;DHT22;14800;48.174;9.798;2023-04-26T03:24:50;8.60;82.00
27314;DHT22;14800;48.174;9.798;2023-04-26T03:27:16;8.60;82.00
27314;DHT22;14800;48.174;9.798;2023-04-26T03:29:41;8.60;82.00
27314;DHT22;14800;48.174;9.798;2023-04-26T03:32:07;8.70;82.00
27314;DHT22;14800;48.174;9.798;2023-04-26T03:34:33;8.70;81.90
27314;DHT22;14800;48.174;9.798;2023-04-26T03:36:58;8.70;81.90
27314;DHT22;14800;48.174;9.798;2023-04-26T03:39:24;8.70;81.70
27314;DHT22;14800;48.174;9.798;2023-04-26T03:41:49;8.70;81.80
27314;DHT22;14800;48.174;9.798;2023-04-26T03:44:15;8.70;81.90
27314;DHT22;14800;48.174;9.798;2023-04-26T03:46:41;8.70;81.90
27314;DHT22;14800;48.174;9.798;2023-04-26T03:49:07;8.70;82.00
27314;DHT22;14800;48.174;9.798;2023-04-26T03:51:32;8.70;81.90
27314;DHT22;14800;48.174;9.798;2023-04-26T03:53:58;8.70;82.00
27314;DHT22;14800;48.174;9.798;2023-04-26T03:56:25;8.70;81.90
27314;DHT22;14800;48.174;9.798;2023-04-26T03:58:51;8.70;81.70
27314;DHT22;14800;48.174;9.798;2023-04-26T04:01:16;8.70;81.60
27314;DHT22;14800;48.174;9.798;2023-04-26T04:03:42;8.70;81.70
27314;DHT22;14800;48.174;9.798;2023-04-26T04:06:07;8.60;81.70
27314;DHT22;14800;48.174;9.798;2023-04-26T04:08:33;8.70;81.80
27314;DHT22;14800;48.174;9.798;2023-04-26T04:10:59;8.60;81.80
27314;DHT22;14800;48.174;9.798;2023-04-26T04:13:25;8.60;81.70
27314;DHT22;14800;48.174;9.798;2023-04-26T04:15:51;8.70;81.80
27314;DHT22;14800;48.174;9.798;2023-04-26T04:18:17;8.70;81.90
27314;DHT22;14800;48.174;9.798;2023-04-26T04:20:42;8.70;81.70
27314;DHT22;14800;48.174;9.798;2023-04-26T04:23:08;8.70;81.70
27314;DHT22;14800;48.174;9.798;2023-04-26T04:25:34;8.70;81.70
27314;DHT22;14800;48.174;9.798;2023-04-26T04:28:01;8.60;81.70
27314;DHT22;14800;48.174;9.798;2023-04-26T04:30:30;8.70;81.70
27314;DHT22;14800;48.174;9.798;2023-04-26T04:32:56;8.60;81.60
27314;DHT22;14800;48.174;9.798;2023-04-26T04:35:24;8.60;81.50
27314;DHT22;14800;48.174;9.798;2023-04-26T04:37:54;8.60;81.50
27314;DHT22;14800;48.174;9.798;2023-04-26T04:40:21;8.60;81.70
27314;DHT22;14800;48.174;9.798;2023-04-26T04:42:47;8.50;81.80
27314;DHT22;14800;48.174;9.798;2023-04-26T04:45:13;8.50;81.90
27314;DHT22;14800;48.174;9.798;2023-04-26T04:47:39;8.50;82.00
27314;DHT22;14800;48.174;9.798;2023-04-26T04:50:05;8.50;82.10
27314;DHT22;14800;48.174;9.798;2023-04-26T04:52:31;8.50;82.20
27314;DHT22;14800;48.174;9.798;2023-04-26T04:54:58;8.50;82.40
27314;DHT22;14800;48.174;9.798;2023-04-26T04:57:23;8.50;82.40
27314;DHT22;14800;48.174;9.798;2023-04-26T04:59:49;8.50;82.40
27314;DHT22;14800;48.174;9.798;2023-04-26T05:02:15;8.50;82.40
27314;DHT22;14800;48.174;9.798;2023-04-26T05:04:41;8.50;82.40
27314;DHT22;14800;48.174;9.798;2023-04-26T05:07:06;8.60;82.50
27314;DHT22;14800;48.174;9.798;2023-04-26T05:09:32;8.60;82.50
27314;DHT22;14800;48.174;9.798;2023-04-26T05:11:58;8.60;82.40
27314;DHT22;14800;48.174;9.798;2023-04-26T05:14:23;8.70;82.50
27314;DHT22;14800;48.174;9.798;2023-04-26T05:16:49;8.70;82.50
27314;DHT22;14800;48.174;9.798;2023-04-26T05:19:14;8.70;82.40
27314;DHT22;14800;48.174;9.798;2023-04-26T05:21:40;8.70;82.40
27314;DHT22;14800;48.174;9.798;2023-04-26T05:24:06;8.70;82.20
27314;DHT22;14800;48.174;9.798;2023-04-26T05:26:31;8.70;83.10
27314;DHT22;14800;48.174;9.798;2023-04-26T05:28:59;8.70;82.60
27314;DHT22;14800;48.174;9.798;2023-04-26T05:31:24;8.70;82.60
27314;DHT22;14800;48.174;9.798;2023-04-26T05:33:50;8.70;82.50
27314;DHT22;14800;48.174;9.798;2023-04-26T05:36:15;8.70;82.60
27314;DHT22;14800;48.174;9.798;2023-04-26T05:38:41;8.70;82.60
27314;DHT22;14800;48.174;9.798;2023-04-26T05:41:07;8.70;82.60
27314;DHT22;14800;48.174;9.798;2023-04-26T05:43:32;8.80;82.70
27314;DHT22;14800;48.174;9.798;2023-04-26T05:45:58;8.80;82.80
27314;DHT22;14800;48.174;9.798;2023-04-26T05:48:24;8.80;82.90
27314;DHT22;14800;48.174;9.798;2023-04-26T05:50:51;8.90;82.70
27314;DHT22;14800;48.174;9.798;2023-04-26T05:53:18;8.90;82.60
27314;DHT22;14800;48.174;9.798;2023-04-26T05:55:43;8.90;82.60
27314;DHT22;14800;48.174;9.798;2023-04-26T05:58:10;8.90;82.20
27314;DHT22;14800;48.174;9.798;2023-04-26T06:00:36;8.90;82.20
27314;DHT22;14800;48.174;9.798;2023-04-26T06:03:03;8.80;82.00
27314;DHT22;14800;48.174;9.798;2023-04-26T06:05:29;8.90;82.00
27314;DHT22;14800;48.174;9.798;2023-04-26T06:07:55;8.80;82.40
27314;DHT22;14800;48.174;9.798;2023-04-26T06:10:21;8.80;82.00
27314;DHT22;14800;48.174;9.798;2023-04-26T06:12:47;8.70;82.00
27314;DHT22;14800;48.174;9.798;2023-04-26T06:15:12;8.70;82.30
27314;DHT22;14800;48.174;9.798;2023-04-26T06:17:39;8.70;82.00
27314;DHT22;14800;48.174;9.798;2023-04-26T06:20:06;8.70;82.40
27314;DHT22;14800;48.174;9.798;2023-04-26T06:22:33;8.70;82.70
27314;DHT22;14800;48.174;9.798;2023-04-26T06:24:59;8.70;83.20
27314;DHT22;14800;48.174;9.798;2023-04-26T06:27:25;8.70;83.40
27314;DHT22;14800;48.174;9.798;2023-04-26T06:29:50;8.70;83.30
27314;DHT22;14800;48.174;9.798;2023-04-26T06:32:16;8.70;82.90
27314;DHT22;14800;48.174;9.798;2023-04-26T06:34:42;8.70;82.60
27314;DHT22;14800;48.174;9.798;2023-04-26T06:37:10;8.60;82.60
27314;DHT22;14800;48.174;9.798;2023-04-26T06:39:36;8.60;82.60
27314;DHT22;14800;48.174;9.798;2023-04-26T06:42:06;8.60;82.40
27314;DHT22;14800;48.174;9.798;2023-04-26T06:44:31;8.60;82.00
27314;DHT22;14800;48.174;9.798;2023-04-26T06:46:57;8.60;81.90
27314;DHT22;14800;48.174;9.798;2023-04-26T06:49:23;8.60;82.20
27314;DHT22;14800;48.174;9.798;2023-04-26T06:51:49;8.60;82.10
27314;DHT22;14800;48.174;9.798;2023-04-26T06:54:17;8.60;82.00
27314;DHT22;14800;48.174;9.798;2023-04-26T06:56:43;8.70;81.60
27314;DHT22;14800;48.174;9.798;2023-04-26T06:59:08;8.70;81.10
27314;DHT22;14800;48.174;9.798;2023-04-26T07:01:34;8.70;80.50
27314;DHT22;14800;48.174;9.798;2023-04-26T07:04:04;8.60;80.50
27314;DHT22;14800;48.174;9.798;2023-04-26T07:06:35;8.60;80.80
27314;DHT22;14800;48.174;9.798;2023-04-26T07:09:01;8.70;81.10
27314;DHT22;14800;48.174;9.798;2023-04-26T07:11:27;8.70;80.50
27314;DHT22;14800;48.174;9.798;2023-04-26T07:13:53;8.70;80.10
27314;DHT22;14800;48.174;9.798;2023-04-26T07:16:20;8.70;80.00
27314;DHT22;14800;48.174;9.798;2023-04-26T07:18:45;8.70;80.00
27314;DHT22;14800;48.174;9.798;2023-04-26T07:21:13;8.70;80.00
27314;DHT22;14800;48.174;9.798;2023-04-26T07:23:38;8.80;80.10
27314;DHT22;14800;48.174;9.798;2023-04-26T07:26:04;8.80;79.80
27314;DHT22;14800;48.174;9.798;2023-04-26T07:28:30;8.90;80.10
27314;DHT22;14800;48.174;9.798;2023-04-26T07:30:57;8.90;80.40
27314;DHT22;14800;48.174;9.798;2023-04-26T07:33:23;9.00;80.50
27314;DHT22;14800;48.174;9.798;2023-04-26T07:35:56;9.10;80.60
27314;DHT22;14800;48.174;9.798;2023-04-26T07:38:22;9.10;80.50
27314;DHT22;14800;48.174;9.798;2023-04-26T07:40:48;9.20;80.40
27314;DHT22;14800;48.174;9.798;2023-04-26T07:43:14;9.30;80.20
27314;DHT22;14800;48.174;9.798;2023-04-26T07:45:40;9.40;80.10
27314;DHT22;14800;48.174;9.798;2023-04-26T07:48:06;9.50;79.60
27314;DHT22;14800;48.174;9.798;2023-04-26T07:50:32;9.60;79.30
27314;DHT22;14800;48.174;9.798;2023-04-26T07:52:57;9.70;79.30
27314;DHT22;14800;48.174;9.798;2023-04-26T07:55:23;9.70;78.90
27314;DHT22;14800;48.174;9.798;2023-04-26T07:57:49;9.80;78.70
27314;DHT22;14800;48.174;9.798;2023-04-26T08:00:15;9.90;79.50
27314;DHT22;14800;48.174;9.798;2023-04-26T08:02:41;9.90;78.20
27314;DHT22;14800;48.174;9.798;2023-04-26T08:05:07;9.90;78.00
27314;DHT22;14800;48.174;9.798;2023-04-26T08:07:33;10.00;77.90
27314;DHT22;14800;48.174;9.798;2023-04-26T08:09:59;10.10;77.80
27314;DHT22;14800;48.174;9.798;2023-04-26T08:12:25;10.10;77.30
27314;DHT22;14800;48.174;9.798;2023-04-26T08:14:50;10.20;77.40
27314;DHT22;14800;48.174;9.798;2023-04-26T08:17:16;10.20;77.40
27314;DHT22;14800;48.174;9.798;2023-04-26T08:19:42;10.30;77.50
27314;DHT22;14800;48.174;9.798;2023-04-26T08:22:07;10.30;77.30
27314;DHT22;14800;48.174;9.798;2023-04-26T08:24:33;10.30;76.90
27314;DHT22;14800;48.174;9.798;2023-04-26T08:26:58;10.40;76.60
27314;DHT22;14800;48.174;9.798;2023-04-26T08:29:25;10.40;76.30
27314;DHT22;14800;48.174;9.798;2023-04-26T08:31:51;10.40;75.60
27314;DHT22;14800;48.174;9.798;2023-04-26T08:34:17;10.50;75.40
27314;DHT22;14800;48.174;9.798;2023-04-26T08:36:43;10.50;74.90
27314;DHT22;14800;48.174;9.798;2023-04-26T08:39:10;10.50;75.00
27314;DHT22;14800;48.174;9.798;2023-04-26T08:41:42;10.50;74.60
27314;DHT22;14800;48.174;9.798;2023-04-26T08:44:08;10.50;75.30
27314;DHT22;14800;48.174;9.798;2023-04-26T08:47:02;10.50;75.80
27314;DHT22;14800;48.174;9.798;2023-04-26T08:49:43;10.50;76.00
27314;DHT22;14800;48.174;9.798;2023-04-26T08:52:11;10.60;75.10
27314;DHT22;14800;48.174;9.798;2023-04-26T08:54:38;10.60;76.00
27314;DHT22;14800;48.174;9.798;2023-04-26T08:57:08;10.70;75.70
27314;DHT22;14800;48.174;9.798;2023-04-26T08:59:38;10.70;75.80
27314;DHT22;14800;48.174;9.798;2023-04-26T09:02:05;10.80;75.80
27314;DHT22;14800;48.174;9.798;2023-04-26T09:04:31;10.80;73.90
27314;DHT22;14800;48.174;9.798;2023-04-26T09:07:01;10.80;73.90
27314;DHT22;14800;48.174;9.798;2023-04-26T09:09:31;10.90;74.20
27314;DHT22;14800;48.174;9.798;2023-04-26T09:11:59;10.90;74.70
27314;DHT22;14800;48.174;9.798;2023-04-26T09:14:26;11.00;74.30
27314;DHT22;14800;48.174;9.798;2023-04-26T09:16:52;11.00;74.00
27314;DHT22;14800;48.174;9.798;2023-04-26T09:19:38;11.10;73.90
27314;DHT22;14800;48.174;9.798;2023-04-26T09:22:04;11.20;71.90
27314;DHT22;14800;48.174;9.798;2023-04-26T09:24:46;11.20;72.50
27314;DHT22;14800;48.174;9.798;2023-04-26T09:27:13;11.30;72.20
27314;DHT22;14800;48.174;9.798;2023-04-26T09:29:38;11.30;72.00
27314;DHT22;14800;48.174;9.798;2023-04-26T09:32:04;11.40;71.80
27314;DHT22;14800;48.174;9.798;2023-04-26T09:34:43;11.40;72.10
27314;DHT22;14800;48.174;9.798;2023-04-26T09:37:10;11.50;71.80
27314;DHT22;14800;48.174;9.798;2023-04-26T09:39:40;11.60;72.10
27314;DHT22;14800;48.174;9.798;2023-04-26T09:42:07;11.70;69.90
27314;DHT22;14800;48.174;9.798;2023-04-26T09:44:33;11.70;70.70
27314;DHT22;14800;48.174;9.798;2023-04-26T09:47:03;11.80;71.30
27314;DHT22;14800;48.174;9.798;2023-04-26T09:49:52;11.80;70.50
27314;DHT22;14800;48.174;9.798;2023-04-26T09:52:17;11.90;70.20
27314;DHT22;14800;48.174;9.798;2023-04-26T09:54:44;12.00;69.90
27314;DHT22;14800;48.174;9.798;2023-04-26T09:57:15;11.90;68.40
27314;DHT22;14800;48.174;9.798;2023-04-26T09:59:51;11.90;68.10
27314;DHT22;14800;48.174;9.798;2023-04-26T10:02:25;11.90;68.20
27314;DHT22;14800;48.174;9.798;2023-04-26T10:04:55;12.00;68.80
27314;DHT22;14800;48.174;9.798;2023-04-26T10:07:22;12.10;69.30
27314;DHT22;14800;48.174;9.798;2023-04-26T10:09:48;12.10;66.20
27314;DHT22;14800;48.174;9.798;2023-04-26T10:12:17;12.20;66.40
27314;DHT22;14800;48.174;9.798;2023-04-26T10:14:44;12.20;65.60
27314;DHT22;14800;48.174;9.798;2023-04-26T10:17:12;12.30;66.40
27314;DHT22;14800;48.174;9.798;2023-04-26T10:19:42;12.40;65.90
27314;DHT22;14800;48.174;9.798;2023-04-26T10:22:26;12.40;64.90
27314;DHT22;14800;48.174;9.798;2023-04-26T10:24:53;12.50;64.20
27314;DHT22;14800;48.174;9.798;2023-04-26T10:30:09;12.50;63.40
27314;DHT22;14800;48.174;9.798;2023-04-26T10:35:27;12.60;63.80
27314;DHT22;14800;48.174;9.798;2023-04-26T10:40:29;12.70;60.40
27314;DHT22;14800;48.174;9.798;2023-04-26T10:45:44;12.70;61.00
27314;DHT22;14800;48.174;9.798;2023-04-26T10:48:20;12.80;61.60
27314;DHT22;14800;48.174;9.798;2023-04-26T10:59:11;12.90;59.30
27314;DHT22;14800;48.174;9.798;2023-04-26T11:01:38;12.90;58.70
27314;DHT22;14800;48.174;9.798;2023-04-26T11:04:11;12.90;59.20
27314;DHT22;14800;48.174;9.798;2023-04-26T11:06:52;12.90;58.50
27314;DHT22;14800;48.174;9.798;2023-04-26T11:09:37;12.90;58.10
27314;DHT22;14800;48.174;9.798;2023-04-26T11:12:04;12.90;58.20
27314;DHT22;14800;48.174;9.798;2023-04-26T11:14:30;12.90;58.10
27314;DHT22;14800;48.174;9.798;2023-04-26T11:16:55;12.90;60.90
27314;DHT22;14800;48.174;9.798;2023-04-26T11:19:25;13.00;60.80
27314;DHT22;14800;48.174;9.798;2023-04-26T11:21:51;13.10;60.50
27314;DHT22;14800;48.174;9.798;2023-04-26T11:24:24;13.20;60.30
27314;DHT22;14800;48.174;9.798;2023-04-26T11:26:51;13.30;59.40
27314;DHT22;14800;48.174;9.798;2023-04-26T11:29:21;13.40;59.30
27314;DHT22;14800;48.174;9.798;2023-04-26T11:31:53;13.50;59.90
27314;DHT22;14800;48.174;9.798;2023-04-26T11:34:41;13.60;59.50
27314;DHT22;14800;48.174;9.798;2023-04-26T11:37:06;13.70;59.60
27314;DHT22;14800;48.174;9.798;2023-04-26T11:39:35;13.80;59.40
27314;DHT22;14800;48.174;9.798;2023-04-26T11:42:09;13.90;58.40
27314;DHT22;14800;48.174;9.798;2023-04-26T11:44:35;14.00;58.20
27314;DHT22;14800;48.174;9.798;2023-04-26T11:47:02;13.90;57.00
27314;DHT22;14800;48.174;9.798;2023-04-26T11:49:29;13.90;57.80
27314;DHT22;14800;48.174;9.798;2023-04-26T11:51:55;14.00;58.50
27314;DHT22;14800;48.174;9.798;2023-04-26T11:54:32;14.00;58.50
27314;DHT22;14800;48.174;9.798;2023-04-26T11:56:58;14.10;57.90
27314;DHT22;14800;48.174;9.798;2023-04-26T11:59:27;14.20;58.40
27314;DHT22;14800;48.174;9.798;2023-04-26T12:01:55;14.20;58.20
27314;DHT22;14800;48.174;9.798;2023-04-26T12:04:27;14.40;57.40
27314;DHT22;14800;48.174;9.798;2023-04-26T12:06:54;14.40;56.90
27314;DHT22;14800;48.174;9.798;2023-04-26T12:09:26;14.40;56.70
27314;DHT22;14800;48.174;9.798;2023-04-26T12:12:02;14.40;55.80
27314;DHT22;14800;48.174;9.798;2023-04-26T12:14:38;14.40;55.30
27314;DHT22;14800;48.174;9.798;2023-04-26T12:17:05;14.40;55.90
27314;DHT22;14800;48.174;9.798;2023-04-26T12:19:35;14.30;56.90
27314;DHT22;14800;48.174;9.798;2023-04-26T12:22:02;14.30;57.10
27314;DHT22;14800;48.174;9.798;2023-04-26T12:24:29;14.30;57.10
27314;DHT22;14800;48.174;9.798;2023-04-26T12:26:59;14.30;57.10
27314;DHT22;14800;48.174;9.798;2023-04-26T12:29:25;14.40;57.20
27314;DHT22;14800;48.174;9.798;2023-04-26T12:31:52;14.50;57.40
27314;DHT22;14800;48.174;9.798;2023-04-26T12:34:17;14.50;56.90
27314;DHT22;14800;48.174;9.798;2023-04-26T12:36:43;14.60;57.00
27314;DHT22;14800;48.174;9.798;2023-04-26T12:39:12;14.60;57.20
27314;DHT22;14800;48.174;9.798;2023-04-26T12:41:40;14.60;57.20
27314;DHT22;14800;48.174;9.798;2023-04-26T12:44:09;14.70;57.40
27314;DHT22;14800;48.174;9.798;2023-04-26T12:46:35;14.70;56.40
27314;DHT22;14800;48.174;9.798;2023-04-26T12:49:01;14.70;54.90
27314;DHT22;14800;48.174;9.798;2023-04-26T12:51:28;14.70;55.60
27314;DHT22;14800;48.174;9.798;2023-04-26T12:53:54;14.60;55.50
27314;DHT22;14800;48.174;9.798;2023-04-26T12:56:20;14.60;56.00
27314;DHT22;14800;48.174;9.798;2023-04-26T12:58:46;14.50;56.50
27314;DHT22;14800;48.174;9.798;2023-04-26T13:01:12;14.50;56.90
27314;DHT22;14800;48.174;9.798;2023-04-26T13:03:38;14.50;57.00
27314;DHT22;14800;48.174;9.798;2023-04-26T13:06:04;14.50;55.80
27314;DHT22;14800;48.174;9.798;2023-04-26T13:08:30;14.50;56.50
27314;DHT22;14800;48.174;9.798;2023-04-26T13:10:56;14.50;56.70
27314;DHT22;14800;48.174;9.798;2023-04-26T13:13:22;14.40;57.00
27314;DHT22;14800;48.174;9.798;2023-04-26T13:15:48;14.50;57.10
27314;DHT22;14800;48.174;9.798;2023-04-26T13:18:13;14.60;57.00
27314;DHT22;14800;48.174;9.798;2023-04-26T13:20:40;14.60;56.90
27314;DHT22;14800;48.174;9.798;2023-04-26T13:23:05;14.70;56.00
27314;DHT22;14800;48.174;9.798;2023-04-26T13:25:31;14.70;55.50
27314;DHT22;14800;48.174;9.798;2023-04-26T13:27:57;14.70;55.20
27314;DHT22;14800;48.174;9.798;2023-04-26T13:30:23;14.60;55.40
27314;DHT22;14800;48.174;9.798;2023-04-26T13:32:48;14.60;55.60
27314;DHT22;14800;48.174;9.798;2023-04-26T13:35:14;14.60;55.60
27314;DHT22;14800;48.174;9.798;2023-04-26T13:37:39;14.60;56.10
27314;DHT22;14800;48.174;9.798;2023-04-26T13:40:07;14.70;56.50
27314;DHT22;14800;48.174;9.798;2023-04-26T13:42:35;14.80;56.60
27314;DHT22;14800;48.174;9.798;2023-04-26T13:45:01;14.90;56.50
27314;DHT22;14800;48.174;9.798;2023-04-26T13:47:30;14.90;56.60
27314;DHT22;14800;48.174;9.798;2023-04-26T13:49:56;14.90;56.50
27314;DHT22;14800;48.174;9.798;2023-04-26T13:52:21;15.00;56.60
27314;DHT22;14800;48.174;9.798;2023-04-26T13:54:47;15.10;56.70
27314;DHT22;14800;48.174;9.798;2023-04-26T13:57:12;15.10;56.40
27314;DHT22;14800;48.174;9.798;2023-04-26T13:59:38;15.10;56.30
27314;DHT22;14800;48.174;9.798;2023-04-26T14:02:05;15.20;56.40
27314;DHT22;14800;48.174;9.798;2023-04-26T14:04:31;15.20;56.20
27314;DHT22;14800;48.174;9.798;2023-04-26T14:06:57;15.30;55.80
27314;DHT22;14800;48.174;9.798;2023-04-26T14:09:22;15.30;55.70
27314;DHT22;14800;48.174;9.798;2023-04-26T14:11:48;15.30;55.20
27314;DHT22;14800;48.174;9.798;2023-04-26T14:14:13;15.40;55.40
27314;DHT22;14800;48.174;9.798;2023-04-26T14:16:40;15.30;55.50
27314;DHT22;14800;48.174;9.798;2023-04-26T14:19:05;15.40;55.90
27314;DHT22;14800;48.174;9.798;2023-04-26T14:21:31;15.40;55.80
27314;DHT22;14800;48.174;9.798;2023-04-26T14:23:57;15.40;55.20
27314;DHT22;14800;48.174;9.798;2023-04-26T14:26:25;15.50;55.50
27314;DHT22;14800;48.174;9.798;2023-04-26T14:28:51;15.50;54.80
27314;DHT22;14800;48.174;9.798;2023-04-26T14:31:16;15.50;55.00
27314;DHT22;14800;48.174;9.798;2023-04-26T14:33:43;15.50;54.80
27314;DHT22;14800;48.174;9.798;2023-04-26T14:36:10;15.50;55.30
27314;DHT22;14800;48.174;9.798;2023-04-26T14:38:39;15.50;54.60
27314;DHT22;14800;48.174;9.798;2023-04-26T14:41:05;15.50;53.70
27314;DHT22;14800;48.174;9.798;2023-04-26T14:43:31;15.50;53.30
27314;DHT22;14800;48.174;9.798;2023-04-26T14:45:56;15.40;52.90
27314;DHT22;14800;48.174;9.798;2023-04-26T14:48:22;15.40;53.00
27314;DHT22;14800;48.174;9.798;2023-04-26T14:50:47;15.30;53.10
27314;DHT22;14800;48.174;9.798;2023-04-26T14:53:13;15.20;53.00
27314;DHT22;14800;48.174;9.798;2023-04-26T14:55:38;15.10;53.70
27314;DHT22;14800;48.174;9.798;2023-04-26T14:58:04;15.00;53.40
27314;DHT22;14800;48.174;9.798;2023-04-26T15:00:30;15.00;53.50
27314;DHT22;14800;48.174;9.798;2023-04-26T15:02:55;15.00;53.60
27314;DHT22;14800;48.174;9.798;2023-04-26T15:05:21;14.90;53.60
27314;DHT22;14800;48.174;9.798;2023-04-26T15:07:48;14.90;53.40
27314;DHT22;14800;48.174;9.798;2023-04-26T15:10:14;14.80;53.40
27314;DHT22;14800;48.174;9.798;2023-04-26T15:12:39;14.90;53.70
27314;DHT22;14800;48.174;9.798;2023-04-26T15:15:05;14.90;53.90
27314;DHT22;14800;48.174;9.798;2023-04-26T15:17:32;14.90;53.50
27314;DHT22;14800;48.174;9.798;2023-04-26T15:19:59;14.90;53.50
27314;DHT22;14800;48.174;9.798;2023-04-26T15:22:25;14.90;53.80
27314;DHT22;14800;48.174;9.798;2023-04-26T15:24:50;14.90;54.10
27314;DHT22;14800;48.174;9.798;2023-04-26T15:27:16;15.00;54.20
27314;DHT22;14800;48.174;9.798;2023-04-26T15:29:42;15.00;54.40
27314;DHT22;14800;48.174;9.798;2023-04-26T15:32:08;15.10;54.80
27314;DHT22;14800;48.174;9.798;2023-04-26T15:34:43;15.10;54.60
27314;DHT22;14800;48.174;9.798;2023-04-26T15:37:09;15.20;54.00
27314;DHT22;14800;48.174;9.798;2023-04-26T15:39:35;15.20;53.60
27314;DHT22;14800;48.174;9.798;2023-04-26T15:42:02;15.20;53.50
27314;DHT22;14800;48.174;9.798;2023-04-26T15:44:29;15.20;54.10
27314;DHT22;14800;48.174;9.798;2023-04-26T15:46:55;15.30;53.90
27314;DHT22;14800;48.174;9.798;2023-04-26T15:49:22;15.30;54.30
27314;DHT22;14800;48.174;9.798;2023-04-26T15:51:48;15.40;54.30
27314;DHT22;14800;48.174;9.798;2023-04-26T15:54:14;15.40;54.30
27314;DHT22;14800;48.174;9.798;2023-04-26T15:56:39;15.50;54.50
27314;DHT22;14800;48.174;9.798;2023-04-26T15:59:05;15.60;54.60